sensor_id;sensor_type;location;lat;lon;timestamp;temperature;humidity
26164;DHT22;13914;48.178;11.716;2023-02-01T00:00:47;3.60;97.70
26164;DHT22;13914;48.178;11.716;2023-02-01T00:03:13;3.70;97.80
26164;DHT22;13914;48.178;11.716;2023-02-01T00:05:39;3.70;97.70
26164;DHT22;13914;48.178;11.716;2023-02-01T00:08:05;3.70;97.90
26164;DHT22;13914;48.178;11.716;2023-02-01T00:10:31;3.70;97.80
26164;DHT22;13914;48.178;11.716;2023-02-01T00:12:56;3.70;97.90
26164;DHT22;13914;48.178;11.716;2023-02-01T00:15:22;3.70;97.80
26164;DHT22;13914;48.178;11.716;2023-02-01T00:17:52;3.70;97.80
26164;DHT22;13914;48.178;11.716;2023-02-01T00:20:19;3.70;97.70
26164;DHT22;13914;48.178;11.716;2023-02-01T00:22:45;3.70;97.70
26164;DHT22;13914;48.178;11.716;2023-02-01T00:25:10;3.70;97.80
26164;DHT22;13914;48.178;11.716;2023-02-01T00:27:36;3.70;97.70
26164;DHT22;13914;48.178;11.716;2023-02-01T00:30:02;3.70;97.90
26164;DHT22;13914;48.178;11.716;2023-02-01T00:32:28;3.70;97.70
26164;DHT22;13914;48.178;11.716;2023-02-01T00:34:53;3.70;97.70
26164;DHT22;13914;48.178;11.716;2023-02-01T00:37:19;3.70;97.70
26164;DHT22;13914;48.178;11.716;2023-02-01T00:39:45;3.70;97.60
26164;DHT22;13914;48.178;11.716;2023-02-01T00:42:10;3.70;97.60
26164;DHT22;13914;48.178;11.716;2023-02-01T00:44:36;3.70;97.70
26164;DHT22;13914;48.178;11.716;2023-02-01T00:47:02;3.70;97.60
26164;DHT22;13914;48.178;11.716;2023-02-01T00:49:28;3.70;97.80
26164;DHT22;13914;48.178;11.716;2023-02-01T00:51:54;3.70;97.60
26164;DHT22;13914;48.178;11.716;2023-02-01T00:54:19;3.70;97.80
26164;DHT22;13914;48.178;11.716;2023-02-01T00:56:45;3.70;97.80
26164;DHT22;13914;48.178;11.716;2023-02-01T00:59:11;3.70;97.80
26164;DHT22;13914;48.178;11.716;2023-02-01T01:01:37;3.70;98.00
26164;DHT22;13914;48.178;11.716;2023-02-01T01:04:03;3.70;98.00
26164;DHT22;13914;48.178;11.716;2023-02-01T01:06:30;3.70;98.10
26164;DHT22;13914;48.178;11.716;2023-02-01T01:08:57;3.70;98.30
26164;DHT22;13914;48.178;11.716;2023-02-01T01:11:25;3.70;98.30
26164;DHT22;13914;48.178;11.716;2023-02-01T01:13:53;3.70;98.40
26164;DHT22;13914;48.178;11.716;2023-02-01T01:16:20;3.70;98.40
26164;DHT22;13914;48.178;11.716;2023-02-01T01:18:47;3.70;98.40
26164;DHT22;13914;48.178;11.716;2023-02-01T01:21:14;3.70;98.40
26164;DHT22;13914;48.178;11.716;2023-02-01T01:23:40;3.70;98.40
26164;DHT22;13914;48.178;11.716;2023-02-01T01:26:11;3.70;98.40
26164;DHT22;13914;48.178;11.716;2023-02-01T01:28:48;3.70;98.50
26164;DHT22;13914;48.178;11.716;2023-02-01T01:31:14;3.70;98.60
26164;DHT22;13914;48.178;11.716;2023-02-01T01:33:41;3.70;98.70
26164;DHT22;13914;48.178;11.716;2023-02-01T01:36:09;3.70;98.60
26164;DHT22;13914;48.178;11.716;2023-02-01T01:38:36;3.70;98.60
26164;DHT22;13914;48.178;11.716;2023-02-01T01:41:02;3.60;98.70
26164;DHT22;13914;48.178;11.716;2023-02-01T01:43:44;3.70;98.70
26164;DHT22;13914;48.178;11.716;2023-02-01T01:46:14;3.70;98.70
26164;DHT22;13914;48.178;11.716;2023-02-01T01:48:41;3.60;98.70
26164;DHT22;13914;48.178;11.716;2023-02-01T01:51:08;3.60;98.70
26164;DHT22;13914;48.178;11.716;2023-02-01T01:53:37;3.60;98.80
26164;DHT22;13914;48.178;11.716;2023-02-01T01:56:06;3.60;98.80
26164;DHT22;13914;48.178;11.716;2023-02-01T01:58:31;3.60;98.90
26164;DHT22;13914;48.178;11.716;2023-02-01T02:00:58;3.60;98.90
26164;DHT22;13914;48.178;11.716;2023-02-01T02:03:28;3.60;99.00
26164;DHT22;13914;48.178;11.716;2023-02-01T02:05:58;3.60;99.10
26164;DHT22;13914;48.178;11.716;2023-02-01T02:08:25;3.60;99.10
26164;DHT22;13914;48.178;11.716;2023-02-01T02:10:52;3.60;99.10
26164;DHT22;13914;48.178;11.716;2023-02-01T02:19:13;3.60;99.30
26164;DHT22;13914;48.178;11.716;2023-02-01T02:27:30;3.50;99.50
26164;DHT22;13914;48.178;11.716;2023-02-01T02:30:25;3.50;99.70
26164;DHT22;13914;48.178;11.716;2023-02-01T02:41:32;3.50;99.90
26164;DHT22;13914;48.178;11.716;2023-02-01T02:44:21;3.50;99.90
26164;DHT22;13914;48.178;11.716;2023-02-01T02:47:21;3.40;99.90
26164;DHT22;13914;48.178;11.716;2023-02-01T02:53:18;3.50;99.90
26164;DHT22;13914;48.178;11.716;2023-02-01T02:56:06;3.50;99.90
26164;DHT22;13914;48.178;11.716;2023-02-01T02:58:52;3.40;99.90
26164;DHT22;13914;48.178;11.716;2023-02-01T03:01:37;3.40;99.90
26164;DHT22;13914;48.178;11.716;2023-02-01T03:04:22;3.40;99.90
26164;DHT22;13914;48.178;11.716;2023-02-01T03:06:48;3.40;99.90
26164;DHT22;13914;48.178;11.716;2023-02-01T03:09:17;3.40;99.90
26164;DHT22;13914;48.178;11.716;2023-02-01T03:11:46;3.40;99.90
26164;DHT22;13914;48.178;11.716;2023-02-01T03:14:33;3.40;99.90
26164;DHT22;13914;48.178;11.716;2023-02-01T03:17:11;3.40;99.90
26164;DHT22;13914;48.178;11.716;2023-02-01T03:19:39;3.40;99.90
26164;DHT22;13914;48.178;11.716;2023-02-01T03:22:14;3.40;99.90
26164;DHT22;13914;48.178;11.716;2023-02-01T03:24:51;3.40;99.90
26164;DHT22;13914;48.178;11.716;2023-02-01T03:30:22;3.40;99.90
26164;DHT22;13914;48.178;11.716;2023-02-01T03:32:54;3.40;99.90
26164;DHT22;13914;48.178;11.716;2023-02-01T03:35:36;3.40;99.90
26164;DHT22;13914;48.178;11.716;2023-02-01T03:40:47;3.40;99.90
26164;DHT22;13914;48.178;11.716;2023-02-01T03:43:17;3.40;99.90
26164;DHT22;13914;48.178;11.716;2023-02-01T03:45:45;3.40;99.90
26164;DHT22;13914;48.178;11.716;2023-02-01T03:48:13;3.40;99.90
26164;DHT22;13914;48.178;11.716;2023-02-01T03:50:40;3.40;99.90
26164;DHT22;13914;48.178;11.716;2023-02-01T03:53:16;3.40;99.90
26164;DHT22;13914;48.178;11.716;2023-02-01T03:55:43;3.40;99.90
26164;DHT22;13914;48.178;11.716;2023-02-01T03:58:11;3.40;99.90
26164;DHT22;13914;48.178;11.716;2023-02-01T04:00:39;3.40;99.90
26164;DHT22;13914;48.178;11.716;2023-02-01T04:03:06;3.40;99.90
26164;DHT22;13914;48.178;11.716;2023-02-01T04:05:32;3.40;99.90
26164;DHT22;13914;48.178;11.716;2023-02-01T04:07:58;3.40;99.90
26164;DHT22;13914;48.178;11.716;2023-02-01T04:10:24;3.40;99.90
26164;DHT22;13914;48.178;11.716;2023-02-01T04:12:50;3.40;99.90
26164;DHT22;13914;48.178;11.716;2023-02-01T04:15:16;3.40;99.90
26164;DHT22;13914;48.178;11.716;2023-02-01T04:17:41;3.40;99.90
26164;DHT22;13914;48.178;11.716;2023-02-01T04:20:07;3.50;99.90
26164;DHT22;13914;48.178;11.716;2023-02-01T04:22:34;3.40;99.90
26164;DHT22;13914;48.178;11.716;2023-02-01T04:25:00;3.50;99.90
26164;DHT22;13914;48.178;11.716;2023-02-01T04:27:25;3.50;99.90
26164;DHT22;13914;48.178;11.716;2023-02-01T04:29:51;3.50;99.90
26164;DHT22;13914;48.178;11.716;2023-02-01T04:32:17;3.50;99.90
26164;DHT22;13914;48.178;11.716;2023-02-01T04:34:43;3.40;99.90
26164;DHT22;13914;48.178;11.716;2023-02-01T04:37:09;3.50;99.90
26164;DHT22;13914;48.178;11.716;2023-02-01T04:39:34;3.50;99.90
26164;DHT22;13914;48.178;11.716;2023-02-01T04:42:00;3.50;99.90
26164;DHT22;13914;48.178;11.716;2023-02-01T04:44:26;3.50;99.90
26164;DHT22;13914;48.178;11.716;2023-02-01T04:46:51;3.50;99.90
26164;DHT22;13914;48.178;11.716;2023-02-01T04:49:17;3.50;99.80
26164;DHT22;13914;48.178;11.716;2023-02-01T04:51:43;3.50;99.90
26164;DHT22;13914;48.178;11.716;2023-02-01T04:54:09;3.50;99.70
26164;DHT22;13914;48.178;11.716;2023-02-01T04:56:37;3.50;99.70
26164;DHT22;13914;48.178;11.716;2023-02-01T04:59:03;3.50;99.70
26164;DHT22;13914;48.178;11.716;2023-02-01T05:01:29;3.50;99.80
26164;DHT22;13914;48.178;11.716;2023-02-01T05:03:55;3.40;99.70
26164;DHT22;13914;48.178;11.716;2023-02-01T05:06:21;3.50;99.70
26164;DHT22;13914;48.178;11.716;2023-02-01T05:08:47;3.50;99.80
26164;DHT22;13914;48.178;11.716;2023-02-01T05:11:13;3.50;99.70
26164;DHT22;13914;48.178;11.716;2023-02-01T05:13:58;3.50;99.70
26164;DHT22;13914;48.178;11.716;2023-02-01T05:16:24;3.50;99.70
26164;DHT22;13914;48.178;11.716;2023-02-01T05:18:50;3.50;99.70
26164;DHT22;13914;48.178;11.716;2023-02-01T05:21:15;3.50;99.70
26164;DHT22;13914;48.178;11.716;2023-02-01T05:23:41;3.50;99.70
26164;DHT22;13914;48.178;11.716;2023-02-01T05:26:25;3.50;99.70
26164;DHT22;13914;48.178;11.716;2023-02-01T05:28:51;3.50;99.70
26164;DHT22;13914;48.178;11.716;2023-02-01T05:31:17;3.50;99.60
26164;DHT22;13914;48.178;11.716;2023-02-01T05:33:42;3.50;99.60
26164;DHT22;13914;48.178;11.716;2023-02-01T05:36:08;3.50;99.60
26164;DHT22;13914;48.178;11.716;2023-02-01T05:38:34;3.50;99.60
26164;DHT22;13914;48.178;11.716;2023-02-01T05:41:01;3.50;99.60
26164;DHT22;13914;48.178;11.716;2023-02-01T05:43:26;3.50;99.60
26164;DHT22;13914;48.178;11.716;2023-02-01T05:45:53;3.50;99.90
26164;DHT22;13914;48.178;11.716;2023-02-01T05:48:20;3.50;99.60
26164;DHT22;13914;48.178;11.716;2023-02-01T05:54:27;3.50;99.60
26164;DHT22;13914;48.178;11.716;2023-02-01T05:56:53;3.50;99.60
26164;DHT22;13914;48.178;11.716;2023-02-01T05:59:19;3.50;99.50
26164;DHT22;13914;48.178;11.716;2023-02-01T06:01:44;3.50;99.40
26164;DHT22;13914;48.178;11.716;2023-02-01T06:04:10;3.50;99.50
26164;DHT22;13914;48.178;11.716;2023-02-01T06:06:36;3.50;99.50
26164;DHT22;13914;48.178;11.716;2023-02-01T06:09:04;3.50;99.50
26164;DHT22;13914;48.178;11.716;2023-02-01T06:11:30;3.50;99.50
26164;DHT22;13914;48.178;11.716;2023-02-01T06:13:56;3.50;99.40
26164;DHT22;13914;48.178;11.716;2023-02-01T06:16:21;3.50;99.50
26164;DHT22;13914;48.178;11.716;2023-02-01T06:18:47;3.50;99.50
26164;DHT22;13914;48.178;11.716;2023-02-01T06:21:13;3.50;99.50
26164;DHT22;13914;48.178;11.716;2023-02-01T06:23:41;3.50;99.40
26164;DHT22;13914;48.178;11.716;2023-02-01T06:26:07;3.50;99.50
26164;DHT22;13914;48.178;11.716;2023-02-01T06:28:33;3.50;99.60
26164;DHT22;13914;48.178;11.716;2023-02-01T06:31:03;3.50;99.50
26164;DHT22;13914;48.178;11.716;2023-02-01T06:33:32;3.50;99.40
26164;DHT22;13914;48.178;11.716;2023-02-01T06:36:01;3.50;99.30
26164;DHT22;13914;48.178;11.716;2023-02-01T06:38:29;3.50;99.30
26164;DHT22;13914;48.178;11.716;2023-02-01T06:40:55;3.50;99.30
26164;DHT22;13914;48.178;11.716;2023-02-01T06:43:22;3.50;99.40
26164;DHT22;13914;48.178;11.716;2023-02-01T06:45:49;3.50;99.40
26164;DHT22;13914;48.178;11.716;2023-02-01T06:48:15;3.60;99.40
26164;DHT22;13914;48.178;11.716;2023-02-01T06:50:40;3.50;99.40
26164;DHT22;13914;48.178;11.716;2023-02-01T06:53:06;3.50;99.40
26164;DHT22;13914;48.178;11.716;2023-02-01T06:55:32;3.60;99.30
26164;DHT22;13914;48.178;11.716;2023-02-01T06:57:57;3.50;99.30
26164;DHT22;13914;48.178;11.716;2023-02-01T07:00:23;3.50;99.40
26164;DHT22;13914;48.178;11.716;2023-02-01T07:02:49;3.50;99.20
26164;DHT22;13914;48.178;11.716;2023-02-01T07:05:15;3.60;99.40
26164;DHT22;13914;48.178;11.716;2023-02-01T07:07:40;3.60;99.40
26164;DHT22;13914;48.178;11.716;2023-02-01T07:10:06;3.60;99.40
26164;DHT22;13914;48.178;11.716;2023-02-01T07:12:32;3.60;99.40
26164;DHT22;13914;48.178;11.716;2023-02-01T07:14:58;3.60;99.40
26164;DHT22;13914;48.178;11.716;2023-02-01T07:17:23;3.60;99.40
26164;DHT22;13914;48.178;11.716;2023-02-01T07:19:49;3.60;99.30
26164;DHT22;13914;48.178;11.716;2023-02-01T07:22:18;3.60;99.20
26164;DHT22;13914;48.178;11.716;2023-02-01T07:24:43;3.60;99.30
26164;DHT22;13914;48.178;11.716;2023-02-01T07:27:09;3.60;99.20
26164;DHT22;13914;48.178;11.716;2023-02-01T07:29:36;3.60;99.30
26164;DHT22;13914;48.178;11.716;2023-02-01T07:32:03;3.70;99.40
26164;DHT22;13914;48.178;11.716;2023-02-01T07:34:29;3.70;99.40
26164;DHT22;13914;48.178;11.716;2023-02-01T07:36:56;3.70;99.10
26164;DHT22;13914;48.178;11.716;2023-02-01T07:39:21;3.60;99.20
26164;DHT22;13914;48.178;11.716;2023-02-01T07:41:47;3.70;99.20
26164;DHT22;13914;48.178;11.716;2023-02-01T07:44:13;3.70;99.20
26164;DHT22;13914;48.178;11.716;2023-02-01T07:46:39;3.70;99.00
26164;DHT22;13914;48.178;11.716;2023-02-01T07:49:08;3.70;98.90
26164;DHT22;13914;48.178;11.716;2023-02-01T07:51:34;3.70;99.00
26164;DHT22;13914;48.178;11.716;2023-02-01T07:54:01;3.70;99.00
26164;DHT22;13914;48.178;11.716;2023-02-01T07:56:27;3.80;99.10
26164;DHT22;13914;48.178;11.716;2023-02-01T07:58:53;3.80;98.90
26164;DHT22;13914;48.178;11.716;2023-02-01T08:01:25;3.80;98.90
26164;DHT22;13914;48.178;11.716;2023-02-01T08:04:02;3.80;98.80
26164;DHT22;13914;48.178;11.716;2023-02-01T08:06:29;3.80;99.00
26164;DHT22;13914;48.178;11.716;2023-02-01T08:08:56;3.80;98.90
26164;DHT22;13914;48.178;11.716;2023-02-01T08:11:23;3.80;98.90
26164;DHT22;13914;48.178;11.716;2023-02-01T08:13:49;3.80;98.70
26164;DHT22;13914;48.178;11.716;2023-02-01T08:16:16;3.90;98.80
26164;DHT22;13914;48.178;11.716;2023-02-01T08:18:42;3.90;98.70
26164;DHT22;13914;48.178;11.716;2023-02-01T08:23:35;3.90;98.80
26164;DHT22;13914;48.178;11.716;2023-02-01T08:26:06;3.90;98.50
26164;DHT22;13914;48.178;11.716;2023-02-01T08:28:48;3.90;98.60
26164;DHT22;13914;48.178;11.716;2023-02-01T08:31:21;4.00;98.50
26164;DHT22;13914;48.178;11.716;2023-02-01T08:33:49;4.00;98.80
26164;DHT22;13914;48.178;11.716;2023-02-01T08:36:16;4.00;98.80
26164;DHT22;13914;48.178;11.716;2023-02-01T08:38:42;4.00;98.70
26164;DHT22;13914;48.178;11.716;2023-02-01T08:41:08;4.00;98.50
26164;DHT22;13914;48.178;11.716;2023-02-01T08:43:36;4.00;98.50
26164;DHT22;13914;48.178;11.716;2023-02-01T08:46:02;4.10;98.30
26164;DHT22;13914;48.178;11.716;2023-02-01T08:48:29;4.10;98.40
26164;DHT22;13914;48.178;11.716;2023-02-01T08:50:55;4.10;98.10
26164;DHT22;13914;48.178;11.716;2023-02-01T08:53:20;4.10;98.40
26164;DHT22;13914;48.178;11.716;2023-02-01T08:55:46;4.10;98.30
26164;DHT22;13914;48.178;11.716;2023-02-01T08:58:12;4.20;98.20
26164;DHT22;13914;48.178;11.716;2023-02-01T09:00:39;4.20;97.50
26164;DHT22;13914;48.178;11.716;2023-02-01T09:03:07;4.20;97.90
26164;DHT22;13914;48.178;11.716;2023-02-01T09:05:34;4.20;97.70
26164;DHT22;13914;48.178;11.716;2023-02-01T09:08:00;4.30;97.90
26164;DHT22;13914;48.178;11.716;2023-02-01T09:10:26;4.30;97.40
26164;DHT22;13914;48.178;11.716;2023-02-01T09:12:51;4.30;97.90
26164;DHT22;13914;48.178;11.716;2023-02-01T09:15:17;4.30;97.80
26164;DHT22;13914;48.178;11.716;2023-02-01T09:17:43;4.40;97.70
26164;DHT22;13914;48.178;11.716;2023-02-01T09:20:09;4.40;97.50
26164;DHT22;13914;48.178;11.716;2023-02-01T09:22:35;4.40;97.60
26164;DHT22;13914;48.178;11.716;2023-02-01T09:25:00;4.40;97.70
26164;DHT22;13914;48.178;11.716;2023-02-01T09:27:26;4.40;97.40
26164;DHT22;13914;48.178;11.716;2023-02-01T09:29:52;4.50;97.60
26164;DHT22;13914;48.178;11.716;2023-02-01T09:32:21;4.50;97.00
26164;DHT22;13914;48.178;11.716;2023-02-01T09:34:48;4.50;97.00
26164;DHT22;13914;48.178;11.716;2023-02-01T09:37:14;4.50;97.20
26164;DHT22;13914;48.178;11.716;2023-02-01T09:39:40;4.60;97.50
26164;DHT22;13914;48.178;11.716;2023-02-01T09:47:14;4.70;97.20
26164;DHT22;13914;48.178;11.716;2023-02-01T09:49:48;4.70;97.10
26164;DHT22;13914;48.178;11.716;2023-02-01T09:52:15;4.70;97.60
26164;DHT22;13914;48.178;11.716;2023-02-01T09:54:47;4.70;97.30
26164;DHT22;13914;48.178;11.716;2023-02-01T09:57:19;4.80;97.40
26164;DHT22;13914;48.178;11.716;2023-02-01T09:59:58;4.80;97.30
26164;DHT22;13914;48.178;11.716;2023-02-01T10:02:26;4.80;97.30
26164;DHT22;13914;48.178;11.716;2023-02-01T10:04:54;4.80;96.90
26164;DHT22;13914;48.178;11.716;2023-02-01T10:07:38;4.90;97.20
26164;DHT22;13914;48.178;11.716;2023-02-01T10:10:28;4.90;96.90
26164;DHT22;13914;48.178;11.716;2023-02-01T10:18:51;5.00;96.90
26164;DHT22;13914;48.178;11.716;2023-02-01T10:24:02;5.10;97.00
26164;DHT22;13914;48.178;11.716;2023-02-01T10:26:39;5.00;96.80
26164;DHT22;13914;48.178;11.716;2023-02-01T10:29:18;5.00;96.20
26164;DHT22;13914;48.178;11.716;2023-02-01T10:31:45;5.00;96.50
26164;DHT22;13914;48.178;11.716;2023-02-01T10:34:15;5.10;96.50
26164;DHT22;13914;48.178;11.716;2023-02-01T10:37:02;5.10;96.70
26164;DHT22;13914;48.178;11.716;2023-02-01T10:39:37;5.10;96.40
26164;DHT22;13914;48.178;11.716;2023-02-01T10:42:03;5.10;96.60
26164;DHT22;13914;48.178;11.716;2023-02-01T10:44:29;5.20;96.40
26164;DHT22;13914;48.178;11.716;2023-02-01T10:46:55;5.20;96.60
26164;DHT22;13914;48.178;11.716;2023-02-01T10:49:26;5.10;96.50
26164;DHT22;13914;48.178;11.716;2023-02-01T10:52:10;5.20;96.20
26164;DHT22;13914;48.178;11.716;2023-02-01T10:54:38;5.20;96.30
26164;DHT22;13914;48.178;11.716;2023-02-01T10:57:26;5.10;96.30
26164;DHT22;13914;48.178;11.716;2023-02-01T10:59:52;5.10;96.40
26164;DHT22;13914;48.178;11.716;2023-02-01T11:05:01;5.20;96.40
26164;DHT22;13914;48.178;11.716;2023-02-01T11:07:29;5.20;96.10
26164;DHT22;13914;48.178;11.716;2023-02-01T11:09:55;5.20;96.60
26164;DHT22;13914;48.178;11.716;2023-02-01T11:12:25;5.20;96.20
26164;DHT22;13914;48.178;11.716;2023-02-01T11:14:56;5.20;96.10
26164;DHT22;13914;48.178;11.716;2023-02-01T11:17:25;5.20;96.20
26164;DHT22;13914;48.178;11.716;2023-02-01T11:20:01;5.20;96.60
26164;DHT22;13914;48.178;11.716;2023-02-01T11:22:54;5.30;96.40
26164;DHT22;13914;48.178;11.716;2023-02-01T11:25:20;5.30;96.40
26164;DHT22;13914;48.178;11.716;2023-02-01T11:27:46;5.30;96.40
26164;DHT22;13914;48.178;11.716;2023-02-01T11:30:18;5.30;96.30
26164;DHT22;13914;48.178;11.716;2023-02-01T11:32:47;5.30;96.50
26164;DHT22;13914;48.178;11.716;2023-02-01T11:35:18;5.30;96.40
26164;DHT22;13914;48.178;11.716;2023-02-01T11:37:45;5.30;96.20
26164;DHT22;13914;48.178;11.716;2023-02-01T11:43:27;5.30;96.30
26164;DHT22;13914;48.178;11.716;2023-02-01T11:46:02;5.30;96.20
26164;DHT22;13914;48.178;11.716;2023-02-01T11:48:32;5.30;96.50
26164;DHT22;13914;48.178;11.716;2023-02-01T11:53:42;5.30;96.20
26164;DHT22;13914;48.178;11.716;2023-02-01T12:15:33;5.30;96.40
26164;DHT22;13914;48.178;11.716;2023-02-01T12:32:22;5.20;96.30
26164;DHT22;13914;48.178;11.716;2023-02-01T12:37:23;5.20;96.10
26164;DHT22;13914;48.178;11.716;2023-02-01T12:42:55;5.20;96.40
26164;DHT22;13914;48.178;11.716;2023-02-01T12:45:31;5.20;96.00
26164;DHT22;13914;48.178;11.716;2023-02-01T12:48:06;5.20;96.20
26164;DHT22;13914;48.178;11.716;2023-02-01T12:50:47;5.20;96.00
26164;DHT22;13914;48.178;11.716;2023-02-01T12:53:22;5.20;96.30
26164;DHT22;13914;48.178;11.716;2023-02-01T12:55:52;5.20;96.20
26164;DHT22;13914;48.178;11.716;2023-02-01T13:01:09;5.20;96.30
26164;DHT22;13914;48.178;11.716;2023-02-01T13:11:40;5.20;96.00
26164;DHT22;13914;48.178;11.716;2023-02-01T13:14:14;5.20;95.90
26164;DHT22;13914;48.178;11.716;2023-02-01T13:16:46;5.10;95.70
26164;DHT22;13914;48.178;11.716;2023-02-01T13:19:25;5.10;95.70
26164;DHT22;13914;48.178;11.716;2023-02-01T13:21:59;5.20;95.80
26164;DHT22;13914;48.178;11.716;2023-02-01T13:24:52;5.10;95.70
26164;DHT22;13914;48.178;11.716;2023-02-01T13:27:20;5.10;95.40
26164;DHT22;13914;48.178;11.716;2023-02-01T13:29:55;5.10;95.60
26164;DHT22;13914;48.178;11.716;2023-02-01T13:32:40;5.20;95.30
26164;DHT22;13914;48.178;11.716;2023-02-01T13:41:10;5.20;95.80
26164;DHT22;13914;48.178;11.716;2023-02-01T13:43:47;5.20;95.60
26164;DHT22;13914;48.178;11.716;2023-02-01T13:46:15;5.20;95.60
26164;DHT22;13914;48.178;11.716;2023-02-01T13:48:47;5.20;95.60
26164;DHT22;13914;48.178;11.716;2023-02-01T13:51:15;5.20;96.00
26164;DHT22;13914;48.178;11.716;2023-02-01T13:53:48;5.20;96.10
26164;DHT22;13914;48.178;11.716;2023-02-01T13:56:17;5.10;96.00
26164;DHT22;13914;48.178;11.716;2023-02-01T13:58:47;5.20;96.10
26164;DHT22;13914;48.178;11.716;2023-02-01T14:01:34;5.20;96.10
26164;DHT22;13914;48.178;11.716;2023-02-01T14:04:01;5.20;96.10
26164;DHT22;13914;48.178;11.716;2023-02-01T14:11:44;5.10;96.30
26164;DHT22;13914;48.178;11.716;2023-02-01T14:21:56;5.10;96.50
26164;DHT22;13914;48.178;11.716;2023-02-01T14:24:31;5.10;96.30
26164;DHT22;13914;48.178;11.716;2023-02-01T14:29:42;5.10;96.40
26164;DHT22;13914;48.178;11.716;2023-02-01T14:32:16;5.10;96.50
26164;DHT22;13914;48.178;11.716;2023-02-01T14:50:23;5.00;96.10
26164;DHT22;13914;48.178;11.716;2023-02-01T14:55:41;4.90;96.00
26164;DHT22;13914;48.178;11.716;2023-02-01T15:01:22;4.90;95.90
26164;DHT22;13914;48.178;11.716;2023-02-01T15:06:44;4.90;95.80
26164;DHT22;13914;48.178;11.716;2023-02-01T15:09:14;4.90;95.90
26164;DHT22;13914;48.178;11.716;2023-02-01T15:14:36;5.00;95.60
26164;DHT22;13914;48.178;11.716;2023-02-01T15:17:02;5.00;95.60
26164;DHT22;13914;48.178;11.716;2023-02-01T15:19:40;4.90;95.70
26164;DHT22;13914;48.178;11.716;2023-02-01T15:22:18;4.90;95.60
26164;DHT22;13914;48.178;11.716;2023-02-01T15:24:51;4.90;95.50
26164;DHT22;13914;48.178;11.716;2023-02-01T15:27:17;4.90;95.40
26164;DHT22;13914;48.178;11.716;2023-02-01T15:29:43;4.90;95.40
26164;DHT22;13914;48.178;11.716;2023-02-01T15:32:26;4.90;95.70
26164;DHT22;13914;48.178;11.716;2023-02-01T15:34:53;4.90;95.60
26164;DHT22;13914;48.178;11.716;2023-02-01T15:37:20;4.90;95.70
26164;DHT22;13914;48.178;11.716;2023-02-01T15:40:18;4.90;95.50
26164;DHT22;13914;48.178;11.716;2023-02-01T15:42:54;4.90;95.40
26164;DHT22;13914;48.178;11.716;2023-02-01T15:45:21;4.90;95.70
26164;DHT22;13914;48.178;11.716;2023-02-01T15:47:50;4.80;95.50
26164;DHT22;13914;48.178;11.716;2023-02-01T15:50:18;4.80;95.60
26164;DHT22;13914;48.178;11.716;2023-02-01T15:52:46;4.80;95.80
26164;DHT22;13914;48.178;11.716;2023-02-01T15:57:44;4.80;95.90
26164;DHT22;13914;48.178;11.716;2023-02-01T16:00:30;4.80;95.90
26164;DHT22;13914;48.178;11.716;2023-02-01T16:03:00;4.80;95.80
26164;DHT22;13914;48.178;11.716;2023-02-01T16:07:56;4.80;96.00
26164;DHT22;13914;48.178;11.716;2023-02-01T16:10:29;4.80;96.00
26164;DHT22;13914;48.178;11.716;2023-02-01T16:12:55;4.70;95.80
26164;DHT22;13914;48.178;11.716;2023-02-01T16:15:26;4.70;95.90
26164;DHT22;13914;48.178;11.716;2023-02-01T16:17:54;4.70;95.90
26164;DHT22;13914;48.178;11.716;2023-02-01T16:20:20;4.70;96.20
26164;DHT22;13914;48.178;11.716;2023-02-01T16:22:45;4.70;96.60
26164;DHT22;13914;48.178;11.716;2023-02-01T16:25:11;4.70;96.00
26164;DHT22;13914;48.178;11.716;2023-02-01T16:27:37;4.70;96.10
26164;DHT22;13914;48.178;11.716;2023-02-01T16:30:02;4.60;96.00
26164;DHT22;13914;48.178;11.716;2023-02-01T16:32:28;4.60;96.20
26164;DHT22;13914;48.178;11.716;2023-02-01T16:34:56;4.60;96.10
26164;DHT22;13914;48.178;11.716;2023-02-01T16:37:22;4.60;96.00
26164;DHT22;13914;48.178;11.716;2023-02-01T16:39:49;4.60;96.00
26164;DHT22;13914;48.178;11.716;2023-02-01T16:42:15;4.50;96.00
26164;DHT22;13914;48.178;11.716;2023-02-01T16:44:41;4.50;95.90
26164;DHT22;13914;48.178;11.716;2023-02-01T16:47:16;4.50;96.00
26164;DHT22;13914;48.178;11.716;2023-02-01T16:49:44;4.50;95.60
26164;DHT22;13914;48.178;11.716;2023-02-01T16:52:12;4.50;95.80
26164;DHT22;13914;48.178;11.716;2023-02-01T16:54:43;4.40;96.00
26164;DHT22;13914;48.178;11.716;2023-02-01T16:57:13;4.50;96.10
26164;DHT22;13914;48.178;11.716;2023-02-01T16:59:40;4.50;96.10
26164;DHT22;13914;48.178;11.716;2023-02-01T17:02:08;4.50;96.00
26164;DHT22;13914;48.178;11.716;2023-02-01T17:04:36;4.40;95.90
26164;DHT22;13914;48.178;11.716;2023-02-01T17:07:02;4.50;96.10
26164;DHT22;13914;48.178;11.716;2023-02-01T17:09:36;4.40;95.90
26164;DHT22;13914;48.178;11.716;2023-02-01T17:12:03;4.40;95.90
26164;DHT22;13914;48.178;11.716;2023-02-01T17:14:30;4.40;96.10
26164;DHT22;13914;48.178;11.716;2023-02-01T17:16:56;4.40;95.90
26164;DHT22;13914;48.178;11.716;2023-02-01T17:19:22;4.40;95.90
26164;DHT22;13914;48.178;11.716;2023-02-01T17:21:49;4.40;96.10
26164;DHT22;13914;48.178;11.716;2023-02-01T17:24:21;4.40;96.00
26164;DHT22;13914;48.178;11.716;2023-02-01T17:26:48;4.40;95.90
26164;DHT22;13914;48.178;11.716;2023-02-01T17:29:15;4.30;95.90
26164;DHT22;13914;48.178;11.716;2023-02-01T17:31:42;4.30;95.70
26164;DHT22;13914;48.178;11.716;2023-02-01T17:34:09;4.30;95.90
26164;DHT22;13914;48.178;11.716;2023-02-01T17:36:36;4.30;95.80
26164;DHT22;13914;48.178;11.716;2023-02-01T17:39:04;4.40;95.80
26164;DHT22;13914;48.178;11.716;2023-02-01T17:41:30;4.40;95.50
26164;DHT22;13914;48.178;11.716;2023-02-01T17:43:55;4.30;95.70
26164;DHT22;13914;48.178;11.716;2023-02-01T17:46:21;4.30;95.50
26164;DHT22;13914;48.178;11.716;2023-02-01T17:48:51;4.30;95.80
26164;DHT22;13914;48.178;11.716;2023-02-01T17:51:19;4.30;95.40
26164;DHT22;13914;48.178;11.716;2023-02-01T20:48:44;4.40;94.90
26164;DHT22;13914;48.178;11.716;2023-02-01T20:51:11;4.30;94.70
26164;DHT22;13914;48.178;11.716;2023-02-01T20:53:37;4.30;94.90
26164;DHT22;13914;48.178;11.716;2023-02-01T20:56:04;4.30;94.90
26164;DHT22;13914;48.178;11.716;2023-02-01T20:58:30;4.30;95.10
26164;DHT22;13914;48.178;11.716;2023-02-01T21:00:56;4.30;95.10
26164;DHT22;13914;48.178;11.716;2023-02-01T21:06:34;4.30;94.90
26164;DHT22;13914;48.178;11.716;2023-02-01T21:09:00;4.30;95.20
26164;DHT22;13914;48.178;11.716;2023-02-01T21:11:25;4.30;95.20
26164;DHT22;13914;48.178;11.716;2023-02-01T21:13:51;4.30;94.90
26164;DHT22;13914;48.178;11.716;2023-02-01T21:16:17;4.30;95.00
26164;DHT22;13914;48.178;11.716;2023-02-01T21:18:48;4.30;95.20
26164;DHT22;13914;48.178;11.716;2023-02-01T21:21:14;4.30;95.10